Time;durP1;ratioP1;P1;durP2;ratioP2;P2;SDS_P1;SDS_P2;PMS_P1;PMS_P2;Temp;Humidity;BMP_temperature;BMP_pressure;BME280_temperature;BME280_humidity;BME280_pressure;Samples;Min_cycle;Max_cycle;Signal;HPM_P1;HPM_P2
2023/08/02 00:02:29;;;;;;;8.37;3.60;;;;;16.60;99720.00;;;;5070760;28;20348;-64
2023/08/02 00:05:16;;;;;;;9.87;3.47;;;;;16.60;99721.00;;;;5062333;28;20303;-65
2023/08/02 00:08:03;;;;;;;7.03;3.10;;;;;16.60;99710.00;;;;5064894;28;20236;-66
2023/08/02 00:10:49;;;;;;;9.30;3.63;;;;;16.60;99713.00;;;;5069240;28;20297;-66
2023/08/02 00:13:35;;;;;;;8.27;3.80;;;;;16.70;99716.00;;;;5070038;28;20232;-66
2023/08/02 00:16:22;;;;;;;7.43;3.53;;;;;16.60;99707.00;;;;5069342;28;20753;-63
2023/08/02 00:19:10;;;;;;;5.07;3.13;;;;;16.60;99701.00;;;;5061607;28;20232;-65
2023/08/02 00:21:56;;;;;;;5.17;3.30;;;;;16.60;99687.00;;;;5071984;28;20239;-66
2023/08/02 00:24:42;;;;;;;6.10;3.67;;;;;16.70;99699.00;;;;5067883;28;20302;-63
2023/08/02 00:27:29;;;;;;;6.30;3.37;;;;;16.70;99696.00;;;;5066799;28;20235;-65
2023/08/02 00:30:16;;;;;;;5.97;3.13;;;;;16.60;99694.00;;;;5058798;28;20238;-63
2023/08/02 00:33:02;;;;;;;15.50;3.93;;;;;16.70;99693.00;;;;5076641;28;20349;-64
2023/08/02 00:35:50;;;;;;;6.70;3.77;;;;;16.90;99687.00;;;;5059973;28;20228;-63
2023/08/02 00:38:37;;;;;;;6.17;3.30;;;;;16.90;99687.00;;;;5067508;28;20620;-64
2023/08/02 00:41:23;;;;;;;10.50;3.50;;;;;16.90;99678.00;;;;5066653;28;20239;-63
2023/08/02 00:44:10;;;;;;;7.67;3.63;;;;;16.90;99674.00;;;;5072727;28;20228;-64
2023/08/02 00:46:56;;;;;;;8.87;3.53;;;;;16.90;99669.00;;;;5076673;28;20743;-66
2023/08/02 00:49:42;;;;;;;7.73;3.40;;;;;17.00;99661.00;;;;5071320;28;20244;-65
2023/08/02 00:52:31;;;;;;;7.23;3.53;;;;;16.90;99665.00;;;;5065454;28;20290;-65
2023/08/02 00:55:18;;;;;;;5.03;3.30;;;;;16.90;99669.00;;;;5068802;28;20758;-65
2023/08/02 00:58:05;;;;;;;5.67;3.10;;;;;16.90;99663.00;;;;5063883;28;20223;-65
2023/08/02 01:00:51;;;;;;;9.77;3.47;;;;;16.90;99661.00;;;;5068661;28;20236;-65
2023/08/02 01:03:38;;;;;;;6.70;3.37;;;;;16.90;99658.00;;;;5075827;28;20243;-65
2023/08/02 01:06:32;;;;;;;7.93;3.10;;;;;16.90;99659.00;;;;5069330;28;20235;-65
2023/08/02 01:09:30;;;;;;;7.13;3.43;;;;;17.00;99648.00;;;;5061134;28;20244;-66
2023/08/02 01:12:20;;;;;;;7.80;3.43;;;;;17.10;99652.00;;;;5063858;28;20327;-66
2023/08/02 01:15:08;;;;;;;7.47;3.13;;;;;17.00;99648.00;;;;5062544;28;20247;-67
2023/08/02 01:17:55;;;;;;;7.00;3.03;;;;;17.00;99646.00;;;;5073325;28;20617;-65
2023/08/02 01:20:44;;;;;;;7.07;2.67;;;;;17.10;99630.00;;;;5069357;28;20236;-65
2023/08/02 01:23:30;;;;;;;5.37;2.80;;;;;17.00;99636.00;;;;5076762;28;20235;-64
2023/08/02 01:26:18;;;;;;;5.50;3.00;;;;;16.80;99626.00;;;;5064406;28;20273;-64
2023/08/02 01:29:08;;;;;;;9.57;3.07;;;;;16.80;99619.00;;;;5068642;28;20290;-63
2023/08/02 01:31:57;;;;;;;5.23;2.60;;;;;16.80;99628.00;;;;5066617;28;20248;-63
2023/08/02 01:34:44;;;;;;;6.10;2.83;;;;;16.70;99639.00;;;;5075277;28;20227;-63
2023/08/02 01:37:35;;;;;;;5.43;2.80;;;;;16.70;99631.00;;;;5072875;28;25542;-65
2023/08/02 01:40:21;;;;;;;5.47;3.07;;;;;16.60;99635.00;;;;5065283;28;20274;-65
2023/08/02 01:43:08;;;;;;;4.27;2.60;;;;;16.40;99635.00;;;;5072149;28;20239;-66
2023/08/02 01:45:54;;;;;;;4.03;2.80;;;;;16.40;99623.00;;;;5074695;28;20255;-66
2023/08/02 01:48:41;;;;;;;3.80;3.00;;;;;16.50;99644.00;;;;5062575;28;20234;-66
2023/08/02 01:51:27;;;;;;;7.80;2.83;;;;;16.50;99642.00;;;;5065800;28;20231;-66
2023/08/02 01:54:15;;;;;;;7.43;3.00;;;;;16.40;99643.00;;;;5072714;28;20280;-64
2023/08/02 01:57:02;;;;;;;5.67;2.73;;;;;16.50;99634.00;;;;5066272;28;20961;-65
2023/08/02 01:59:48;;;;;;;6.97;3.00;;;;;16.40;99629.00;;;;5071779;28;20274;-65
2023/08/02 02:02:35;;;;;;;11.73;2.90;;;;;16.50;99626.00;;;;5066093;28;20231;-65
2023/08/02 02:05:23;;;;;;;4.33;2.40;;;;;16.40;99611.00;;;;5070734;28;20243;-64
2023/08/02 02:08:09;;;;;;;7.10;2.33;;;;;16.40;99618.00;;;;5078112;28;20346;-63
2023/08/02 02:10:57;;;;;;;4.80;2.50;;;;;16.30;99608.00;;;;5064545;28;20236;-64
2023/08/02 02:13:43;;;;;;;9.13;2.83;;;;;16.30;99598.00;;;;5068756;28;20321;-65
2023/08/02 02:16:30;;;;;;;8.07;2.70;;;;;16.20;99597.00;;;;5068854;28;20352;-64
2023/08/02 02:19:16;;;;;;;7.03;2.90;;;;;16.20;99593.00;;;;5057691;28;20276;-64
2023/08/02 02:22:03;;;;;;;3.87;2.63;;;;;16.20;99579.00;;;;5072818;28;20248;-66
2023/08/02 02:24:49;;;;;;;6.03;2.70;;;;;16.20;99579.00;;;;5069486;28;20316;-64
2023/08/02 02:27:38;;;;;;;8.77;2.60;;;;;16.20;99590.00;;;;5064670;28;20683;-64
2023/08/02 02:30:24;;;;;;;8.10;2.93;;;;;16.10;99593.00;;;;5061379;28;20235;-64
2023/08/02 02:33:10;;;;;;;6.50;2.90;;;;;16.20;99576.00;;;;5062738;28;20363;-66
2023/08/02 02:35:57;;;;;;;5.03;2.50;;;;;16.20;99589.00;;;;5064175;28;20226;-64
2023/08/02 02:38:43;;;;;;;4.93;2.50;;;;;16.30;99582.00;;;;5067795;28;20228;-64
2023/08/02 02:41:30;;;;;;;4.97;2.70;;;;;16.30;99575.00;;;;5065233;28;20248;-64
2023/08/02 02:44:17;;;;;;;6.47;2.60;;;;;16.30;99567.00;;;;5050338;28;20267;-64
2023/08/02 02:47:04;;;;;;;6.60;2.83;;;;;16.30;99569.00;;;;5070932;28;21081;-67
2023/08/02 02:49:51;;;;;;;6.90;2.90;;;;;16.40;99561.00;;;;5069421;28;20239;-64
2023/08/02 02:52:40;;;;;;;7.80;3.00;;;;;16.40;99547.00;;;;5073076;28;20224;-64
2023/08/02 02:55:27;;;;;;;8.77;3.00;;;;;16.50;99538.00;;;;5055888;28;20216;-65
2023/08/02 02:58:13;;;;;;;7.27;2.50;;;;;16.50;99524.00;;;;5072445;28;20273;-64
2023/08/02 03:01:01;;;;;;;7.57;2.80;;;;;16.60;99504.00;;;;5059082;28;20236;-64
2023/08/02 03:03:47;;;;;;;6.70;2.67;;;;;16.60;99504.00;;;;5051237;28;20238;-64
2023/08/02 03:06:34;;;;;;;3.53;2.47;;;;;16.50;99500.00;;;;5064098;28;20721;-66
2023/08/02 03:09:21;;;;;;;3.57;2.50;;;;;16.50;99484.00;;;;5065902;28;20227;-66
2023/08/02 03:12:08;;;;;;;3.47;2.30;;;;;16.50;99496.00;;;;5067378;28;20228;-65
2023/08/02 03:14:55;;;;;;;4.70;2.30;;;;;16.50;99506.00;;;;5075773;28;20235;-66
2023/08/02 03:17:43;;;;;;;8.27;2.73;;;;;16.50;99496.00;;;;5070081;28;20247;-66
2023/08/02 03:20:29;;;;;;;6.37;2.70;;;;;16.50;99500.00;;;;5069224;28;20235;-65
2023/08/02 03:23:16;;;;;;;3.73;2.63;;;;;16.60;99495.00;;;;5068647;28;20269;-66
2023/08/02 03:26:02;;;;;;;5.07;2.90;;;;;16.50;99492.00;;;;5077938;28;20231;-65
2023/08/02 03:28:48;;;;;;;4.73;2.73;;;;;16.50;99485.00;;;;5074845;28;20227;-65
2023/08/02 03:31:35;;;;;;;4.23;2.73;;;;;16.40;99487.00;;;;5077611;28;20338;-66
2023/08/02 03:34:23;;;;;;;6.43;2.83;;;;;16.50;99482.00;;;;5071169;28;20321;-66
2023/08/02 03:37:09;;;;;;;3.50;2.40;;;;;16.50;99470.00;;;;5081932;28;20361;-65
2023/08/02 03:39:56;;;;;;;4.40;2.73;;;;;16.60;99463.00;;;;5072767;28;20228;-66
2023/08/02 03:42:43;;;;;;;7.60;3.07;;;;;16.50;99458.00;;;;5067775;28;20219;-65
2023/08/02 03:45:29;;;;;;;6.70;3.00;;;;;16.60;99465.00;;;;5063167;28;20231;-65
2023/08/02 03:48:16;;;;;;;7.53;2.97;;;;;16.50;99461.00;;;;5078071;28;20230;-64
2023/08/02 03:51:04;;;;;;;5.70;3.10;;;;;16.60;99449.00;;;;5064144;28;20603;-66
2023/08/02 03:53:50;;;;;;;6.43;3.07;;;;;16.60;99439.00;;;;5065867;28;20249;-65
2023/08/02 03:56:37;;;;;;;5.50;2.87;;;;;16.60;99422.00;;;;5060257;28;20309;-63
2023/08/02 03:59:24;;;;;;;7.73;3.10;;;;;16.70;99420.00;;;;5062843;28;20228;-65
2023/08/02 04:02:11;;;;;;;6.07;2.80;;;;;16.70;99425.00;;;;5064004;28;20294;-64
2023/08/02 04:04:57;;;;;;;5.47;2.50;;;;;16.70;99423.00;;;;5069433;28;20235;-64
2023/08/02 04:07:45;;;;;;;4.60;2.77;;;;;16.60;99422.00;;;;5053384;28;20239;-64
2023/08/02 04:10:35;;;;;;;7.67;3.03;;;;;16.70;99416.00;;;;5062732;28;20236;-65
2023/08/02 04:13:22;;;;;;;7.17;2.83;;;;;16.70;99431.00;;;;5072546;28;20243;-65
2023/08/02 04:16:08;;;;;;;4.17;2.80;;;;;16.70;99425.00;;;;5072301;28;20429;-64
2023/08/02 04:18:55;;;;;;;4.87;3.07;;;;;16.70;99437.00;;;;5074862;28;20230;-66
2023/08/02 04:21:41;;;;;;;7.47;3.10;;;;;16.70;99434.00;;;;5069688;28;20348;-65
2023/08/02 04:24:31;;;;;;;3.97;2.53;;;;;16.70;99426.00;;;;5070513;28;20719;-65
2023/08/02 04:27:17;;;;;;;5.70;3.00;;;;;16.70;99417.00;;;;5076955;28;20281;-64
2023/08/02 04:30:04;;;;;;;8.23;3.17;;;;;16.70;99408.00;;;;5072826;28;20684;-64
2023/08/02 04:32:50;;;;;;;4.70;2.83;;;;;16.70;99383.00;;;;5081900;28;20296;-64
2023/08/02 04:35:37;;;;;;;5.43;2.47;;;;;16.80;99412.00;;;;5059027;28;20301;-65
2023/08/02 04:38:25;;;;;;;5.43;2.60;;;;;16.80;99395.00;;;;5077971;28;20676;-66
2023/08/02 04:41:17;;;;;;;7.40;2.70;;;;;16.80;99401.00;;;;5076160;28;20336;-66
2023/08/02 04:44:03;;;;;;;4.80;3.00;;;;;16.80;99389.00;;;;5076974;28;20719;-65
2023/08/02 04:46:50;;;;;;;7.63;3.00;;;;;16.90;99370.00;;;;5067582;28;20351;-66
2023/08/02 04:49:36;;;;;;;5.67;2.90;;;;;17.00;99363.00;;;;5072733;28;20351;-67
2023/08/02 04:52:23;;;;;;;4.90;2.83;;;;;16.90;99346.00;;;;5075084;28;20306;-66
2023/08/02 04:55:10;;;;;;;3.43;2.40;;;;;17.00;99339.00;;;;5071633;28;20235;-64
2023/08/02 04:57:58;;;;;;;7.70;2.80;;;;;17.00;99335.00;;;;5070016;28;20232;-65
2023/08/02 05:00:44;;;;;;;8.90;2.67;;;;;17.10;99316.00;;;;5065319;28;20807;-64
2023/08/02 05:03:33;;;;;;;5.03;3.07;;;;;17.10;99306.00;;;;5068286;28;20236;-64
2023/08/02 05:06:19;;;;;;;6.20;3.10;;;;;17.20;99309.00;;;;5073131;28;20324;-64
2023/08/02 05:09:06;;;;;;;5.53;2.87;;;;;17.20;99308.00;;;;5068559;28;20291;-65
2023/08/02 05:11:54;;;;;;;5.27;2.60;;;;;17.30;99305.00;;;;5079036;28;20235;-68
2023/08/02 05:14:42;;;;;;;5.20;2.50;;;;;17.20;99309.00;;;;5058249;28;20365;-64
2023/08/02 05:17:30;;;;;;;4.93;2.60;;;;;17.40;99297.00;;;;5059714;28;20716;-63
2023/08/02 05:20:16;;;;;;;8.83;2.90;;;;;17.30;99298.00;;;;5065026;28;20244;-63
2023/08/02 05:23:03;;;;;;;4.43;2.90;;;;;17.40;99298.00;;;;5055585;28;20235;-65
2023/08/02 05:25:50;;;;;;;3.87;2.70;;;;;17.30;99288.00;;;;5068383;28;20258;-63
2023/08/02 05:28:37;;;;;;;7.17;2.50;;;;;17.30;99280.00;;;;5060308;28;20227;-64
2023/08/02 05:31:25;;;;;;;6.17;2.60;;;;;17.30;99277.00;;;;5070516;28;20614;-64
2023/08/02 05:34:11;;;;;;;4.60;2.83;;;;;17.20;99270.00;;;;5073002;28;20310;-66
2023/08/02 05:36:58;;;;;;;4.37;2.70;;;;;17.30;99263.00;;;;5065945;28;20298;-66
2023/08/02 05:39:44;;;;;;;5.27;2.73;;;;;17.30;99246.00;;;;5060793;28;20231;-65
2023/08/02 05:42:31;;;;;;;5.40;3.30;;;;;17.40;99235.00;;;;5084058;28;20747;-65
2023/08/02 05:45:17;;;;;;;11.30;5.17;;;;;17.50;99227.00;;;;5064828;28;20260;-62
2023/08/02 05:48:05;;;;;;;8.17;3.67;;;;;17.60;99219.00;;;;5073083;28;20297;-63
2023/08/02 05:50:52;;;;;;;9.67;3.63;;;;;17.70;99222.00;;;;5061170;28;20239;-64
2023/08/02 05:53:38;;;;;;;10.33;3.30;;;;;17.80;99208.00;;;;5058469;28;20239;-63
2023/08/02 05:56:24;;;;;;;6.87;3.13;;;;;18.00;99201.00;;;;5067247;28;20236;-63
2023/08/02 05:59:11;;;;;;;8.80;3.00;;;;;18.10;99194.00;;;;5063877;28;20310;-66
2023/08/02 06:01:57;;;;;;;3.50;2.50;;;;;18.20;99190.00;;;;5063156;28;20293;-64
2023/08/02 06:04:46;;;;;;;6.87;2.90;;;;;18.20;99191.00;;;;5058564;28;20235;-65
2023/08/02 06:07:32;;;;;;;5.40;2.60;;;;;18.20;99185.00;;;;5064870;28;20236;-63
2023/08/02 06:10:19;;;;;;;9.87;2.73;;;;;18.20;99176.00;;;;5074545;28;20362;-66
2023/08/02 06:13:05;;;;;;;6.43;2.60;;;;;18.20;99183.00;;;;5060479;28;20228;-65
2023/08/02 06:15:52;;;;;;;4.73;2.63;;;;;18.30;99179.00;;;;5067801;28;20224;-65
2023/08/02 06:18:38;;;;;;;4.90;2.50;;;;;18.20;99171.00;;;;5069130;28;20751;-66
2023/08/02 06:21:26;;;;;;;5.60;2.90;;;;;18.30;99163.00;;;;5076722;28;20246;-65
2023/08/02 06:24:12;;;;;;;5.97;2.40;;;;;18.40;99160.00;;;;5062942;28;20287;-65
2023/08/02 06:26:58;;;;;;;4.20;2.60;;;;;18.40;99153.00;;;;5076150;28;20736;-66
2023/08/02 06:29:45;;;;;;;4.40;2.40;;;;;18.40;99148.00;;;;5066297;28;20579;-65
2023/08/02 06:32:31;;;;;;;6.20;2.70;;;;;18.20;99147.00;;;;5068221;28;20237;-65
2023/08/02 06:35:18;;;;;;;3.33;2.47;;;;;18.30;99147.00;;;;5067414;28;20224;-66
2023/08/02 06:38:06;;;;;;;6.60;2.90;;;;;18.20;99141.00;;;;5068796;28;20770;-65
2023/08/02 06:40:53;;;;;;;5.47;2.50;;;;;18.20;99141.00;;;;5054497;28;20227;-64
2023/08/02 06:43:39;;;;;;;2.83;2.30;;;;;18.20;99135.00;;;;5081422;28;20617;-65
2023/08/02 06:46:26;;;;;;;3.33;2.10;;;;;18.10;99119.00;;;;5067617;28;20266;-67
2023/08/02 06:49:12;;;;;;;4.27;2.53;;;;;18.00;99119.00;;;;5048534;28;20237;-66
2023/08/02 06:51:59;;;;;;;3.57;2.40;;;;;17.90;99108.00;;;;5062292;28;20328;-63
2023/08/02 06:54:47;;;;;;;5.17;2.70;;;;;17.90;99104.00;;;;5059694;28;20223;-64
2023/08/02 06:57:33;;;;;;;5.13;2.50;;;;;18.00;99109.00;;;;5065037;28;22192;-62
2023/08/02 07:00:20;;;;;;;3.33;2.80;;;;;18.00;99104.00;;;;5068465;28;20240;-65
2023/08/02 07:03:07;;;;;;;6.47;3.13;;;;;18.00;99088.00;;;;5057073;28;20273;-65
2023/08/02 07:05:53;;;;;;;4.67;2.73;;;;;18.10;99077.00;;;;5061284;28;20293;-66
2023/08/02 07:08:41;;;;;;;8.10;2.87;;;;;18.20;99082.00;;;;5070671;28;20777;-64
2023/08/02 07:11:28;;;;;;;6.90;2.90;;;;;18.30;99062.00;;;;5069919;28;20224;-63
2023/08/02 07:14:23;;;;;;;4.53;2.70;;;;;18.20;99055.00;;;;5053881;28;20281;-66
2023/08/02 07:17:09;;;;;;;5.53;3.03;;;;;18.30;99059.00;;;;5047074;28;20281;-64
2023/08/02 07:19:55;;;;;;;3.73;2.80;;;;;18.30;99047.00;;;;5066427;28;20306;-65
2023/08/02 07:22:44;;;;;;;5.63;3.10;;;;;18.30;99036.00;;;;5064883;28;20227;-66
2023/08/02 07:25:30;;;;;;;6.17;3.27;;;;;18.20;99037.00;;;;5062023;28;20363;-65
2023/08/02 07:28:18;;;;;;;3.63;3.00;;;;;18.30;99029.00;;;;5069329;28;20774;-66
2023/08/02 07:31:08;;;;;;;4.43;3.20;;;;;18.20;99020.00;;;;5055689;28;20339;-68
2023/08/02 07:33:55;;;;;;;5.87;2.90;;;;;18.20;99021.00;;;;5066148;28;20231;-64
2023/08/02 07:36:41;;;;;;;5.30;3.10;;;;;18.20;99018.00;;;;5065600;28;20242;-64
2023/08/02 07:39:28;;;;;;;6.37;3.00;;;;;18.30;99001.00;;;;5073942;28;20321;-66
2023/08/02 07:42:15;;;;;;;6.10;3.13;;;;;18.30;99006.00;;;;5071873;28;20235;-64
2023/08/02 07:45:05;;;;;;;9.37;3.20;;;;;18.40;98993.00;;;;5058756;28;20294;-65
2023/08/02 07:47:52;;;;;;;9.47;3.30;;;;;18.50;98984.00;;;;5068778;28;20228;-66
2023/08/02 07:50:39;;;;;;;5.37;3.60;;;;;18.60;98983.00;;;;5073004;28;20299;-65
2023/08/02 07:53:25;;;;;;;3.70;3.10;;;;;18.50;98970.00;;;;5066387;28;21740;-64
2023/08/02 07:56:12;;;;;;;3.77;2.90;;;;;18.40;98963.00;;;;5066186;28;20810;-63
2023/08/02 07:58:59;;;;;;;4.30;3.10;;;;;18.50;98949.00;;;;5063467;28;20978;-67
2023/08/02 08:01:51;;;;;;;5.27;3.37;;;;;18.50;98945.00;;;;5058976;28;20272;-66
2023/08/02 08:04:37;;;;;;;6.33;3.30;;;;;18.50;98936.00;;;;5062153;28;20627;-67
2023/08/02 08:07:24;;;;;;;3.93;3.00;;;;;18.60;98922.00;;;;5066410;28;20263;-63
2023/08/02 08:10:10;;;;;;;5.50;3.20;;;;;18.60;98912.00;;;;5063183;28;20361;-64
2023/08/02 08:12:57;;;;;;;5.33;3.00;;;;;18.70;98908.00;;;;5060343;28;20297;-63
2023/08/02 08:15:44;;;;;;;6.50;2.90;;;;;18.60;98912.00;;;;5064509;28;20219;-65
2023/08/02 08:18:32;;;;;;;4.27;3.07;;;;;18.60;98896.00;;;;5071179;28;20220;-66
2023/08/02 08:21:19;;;;;;;4.87;3.10;;;;;18.60;98896.00;;;;5078085;28;21009;-65
2023/08/02 08:24:06;;;;;;;4.40;3.10;;;;;18.70;98886.00;;;;5070779;28;20238;-65
2023/08/02 08:26:54;;;;;;;4.90;2.80;;;;;18.70;98878.00;;;;5060345;28;20227;-66
2023/08/02 08:29:41;;;;;;;4.10;2.67;;;;;18.80;98859.00;;;;5072613;28;20344;-65
2023/08/02 08:32:29;;;;;;;3.67;2.57;;;;;18.90;98851.00;;;;5074091;28;20387;-64
2023/08/02 08:35:17;;;;;;;3.43;2.53;;;;;19.00;98842.00;;;;5075193;28;20238;-64
2023/08/02 08:38:04;;;;;;;4.63;2.70;;;;;19.00;98839.00;;;;5071629;28;20241;-66
2023/08/02 08:40:51;;;;;;;3.13;2.23;;;;;19.00;98838.00;;;;5062682;28;20230;-65
2023/08/02 08:43:38;;;;;;;4.30;2.50;;;;;19.00;98830.00;;;;5069217;28;20225;-64
2023/08/02 08:46:24;;;;;;;2.80;2.20;;;;;19.00;98828.00;;;;5076261;28;20232;-66
2023/08/02 08:49:11;;;;;;;3.03;2.27;;;;;18.80;98825.00;;;;5071756;28;20876;-66
2023/08/02 08:52:03;;;;;;;2.67;2.33;;;;;18.80;98830.00;;;;5060224;28;20228;-66
2023/08/02 08:54:51;;;;;;;3.40;2.23;;;;;18.80;98835.00;;;;5076874;28;20249;-63
2023/08/02 08:57:38;;;;;;;4.40;2.23;;;;;18.80;98821.00;;;;5068751;28;20630;-65
2023/08/02 09:00:25;;;;;;;2.23;2.03;;;;;18.90;98824.00;;;;5056049;28;20236;-64
2023/08/02 09:03:13;;;;;;;3.37;1.97;;;;;18.90;98824.00;;;;5070257;28;20689;-66
2023/08/02 09:06:00;;;;;;;2.53;2.00;;;;;18.80;98828.00;;;;5069311;28;20223;-64
2023/08/02 09:08:48;;;;;;;3.43;1.90;;;;;18.70;98822.00;;;;5068562;28;20232;-66
2023/08/02 09:11:36;;;;;;;2.10;1.90;;;;;18.70;98813.00;;;;5075845;28;20353;-66
2023/08/02 09:14:22;;;;;;;2.13;1.70;;;;;18.60;98813.00;;;;5066152;28;20231;-64
2023/08/02 09:17:09;;;;;;;4.60;2.07;;;;;18.60;98791.00;;;;5070378;28;20232;-65
2023/08/02 09:20:08;;;;;;;4.07;1.80;;;;;18.70;98799.00;;;;5056009;28;20298;-64
2023/08/02 09:22:54;;;;;;;2.47;1.80;;;;;18.80;98785.00;;;;5058838;28;20220;-65
2023/08/02 09:25:41;;;;;;;2.17;1.70;;;;;19.00;98785.00;;;;5061363;28;20249;-63
2023/08/02 09:28:28;;;;;;;2.03;1.83;;;;;19.10;98767.00;;;;5055679;28;20243;-65
2023/08/02 09:31:18;;;;;;;1.93;1.70;;;;;19.20;98759.00;;;;5058326;28;20240;-63
2023/08/02 09:34:05;;;;;;;1.80;1.60;;;;;19.40;98758.00;;;;5060373;28;20245;-67
2023/08/02 09:36:52;;;;;;;2.40;1.80;;;;;19.50;98748.00;;;;5074849;28;20232;-63
2023/08/02 09:39:38;;;;;;;2.60;1.90;;;;;19.50;98744.00;;;;5075305;28;20296;-66
2023/08/02 09:42:27;;;;;;;3.50;1.80;;;;;19.50;98735.00;;;;5078509;28;20278;-65
2023/08/02 09:45:14;;;;;;;2.10;1.90;;;;;19.50;98738.00;;;;5070574;28;20285;-66
2023/08/02 09:48:00;;;;;;;2.13;1.93;;;;;19.60;98738.00;;;;5060338;28;20342;-66
2023/08/02 09:50:54;;;;;;;2.27;1.73;;;;;19.60;98726.00;;;;5060165;28;20233;-66
2023/08/02 09:53:41;;;;;;;1.97;1.80;;;;;19.60;98718.00;;;;5061626;28;20232;-65
2023/08/02 09:56:28;;;;;;;2.27;1.70;;;;;19.70;98719.00;;;;5069999;28;20303;-65
2023/08/02 09:59:19;;;;;;;2.10;1.90;;;;;19.60;98700.00;;;;5056982;28;20234;-67
2023/08/02 10:02:06;;;;;;;2.10;1.60;;;;;19.80;98706.00;;;;5057578;28;20245;-65
2023/08/02 10:04:55;;;;;;;2.10;1.70;;;;;20.20;98699.00;;;;5070056;28;20230;-64
2023/08/02 10:07:46;;;;;;;1.87;1.63;;;;;20.50;98689.00;;;;5062845;28;20238;-65
2023/08/02 10:10:39;;;;;;;1.97;1.77;;;;;20.40;98696.00;;;;5067416;28;20234;-66
2023/08/02 10:13:30;;;;;;;3.27;1.53;;;;;20.30;98698.00;;;;5058032;28;20246;-66
2023/08/02 10:16:19;;;;;;;1.50;1.40;;;;;20.20;98694.00;;;;5065679;28;20805;-64
2023/08/02 10:19:06;;;;;;;2.60;1.80;;;;;20.30;98696.00;;;;5065476;28;20246;-67
2023/08/02 10:21:53;;;;;;;3.87;1.80;;;;;20.40;98693.00;;;;5051282;28;20710;-63
2023/08/02 10:24:40;;;;;;;3.43;1.70;;;;;20.90;98677.00;;;;5060748;28;20921;-66
2023/08/02 10:27:27;;;;;;;4.07;1.60;;;;;19.80;98661.00;;;;5061170;28;20719;-66
2023/08/02 10:30:14;;;;;;;2.00;1.53;;;;;19.30;98675.00;;;;5061828;28;20252;-64
2023/08/02 10:33:18;;;;;;;2.47;1.70;;;;;19.30;98670.00;;;;5053278;28;20230;-66
2023/08/02 10:36:06;;;;;;;1.97;1.50;;;;;19.10;98673.00;;;;5055108;28;20754;-67
2023/08/02 10:38:54;;;;;;;1.63;1.53;;;;;19.00;98663.00;;;;5060710;28;20229;-66
2023/08/02 10:41:57;;;;;;;1.67;1.40;;;;;19.00;98660.00;;;;5059863;28;20284;-67
2023/08/02 10:45:13;;;;;;;1.33;1.23;;;;;19.10;98652.00;;;;5056015;28;20233;-66
2023/08/02 10:48:25;;;;;;;1.93;1.50;;;;;19.30;98647.00;;;;5052722;28;20953;-66
2023/08/02 10:51:39;;;;;;;1.87;1.40;;;;;19.60;98627.00;;;;5058663;28;20240;-66
2023/08/02 10:54:26;;;;;;;1.47;1.37;;;;;20.00;98634.00;;;;5020593;28;20362;-65
2023/08/02 10:57:14;;;;;;;1.60;1.30;;;;;19.90;98630.00;;;;5050794;28;20795;-65
2023/08/02 11:00:00;;;;;;;1.60;1.50;;;;;20.10;98626.00;;;;5062477;28;20307;-64
2023/08/02 11:02:48;;;;;;;2.73;1.50;;;;;20.10;98633.00;;;;5060412;28;20230;-64
2023/08/02 11:05:43;;;;;;;1.77;1.20;;;;;19.70;98627.00;;;;5054995;28;20238;-67
2023/08/02 11:08:30;;;;;;;1.40;1.30;;;;;19.80;98628.00;;;;5055847;28;20262;-66
2023/08/02 11:11:28;;;;;;;1.80;1.40;;;;;19.90;98634.00;;;;5054327;28;20251;-68
2023/08/02 11:14:26;;;;;;;1.70;1.20;;;;;19.80;98618.00;;;;5060728;28;20242;-66
2023/08/02 11:17:16;;;;;;;4.37;1.47;;;;;19.90;98618.00;;;;5064636;28;20234;-67
2023/08/02 11:20:24;;;;;;;1.43;1.23;;;;;19.80;98612.00;;;;5056816;28;20263;-66
2023/08/02 11:23:25;;;;;;;3.33;1.30;;;;;19.90;98609.00;;;;5055526;28;20241;-65
2023/08/02 11:26:13;;;;;;;3.10;1.40;;;;;19.80;98607.00;;;;5067078;28;20343;-65
2023/08/02 11:29:01;;;;;;;1.60;1.33;;;;;19.80;98607.00;;;;5062825;28;20296;-66
2023/08/02 11:31:48;;;;;;;2.57;1.33;;;;;19.90;98626.00;;;;5059342;28;20276;-66
2023/08/02 11:34:39;;;;;;;1.60;1.37;;;;;19.90;98617.00;;;;5059219;28;20243;-65
2023/08/02 11:37:26;;;;;;;1.27;1.17;;;;;20.00;98613.00;;;;5056783;28;20315;-66
2023/08/02 11:40:15;;;;;;;1.30;1.20;;;;;20.00;98614.00;;;;5056606;28;20238;-66
2023/08/02 11:43:04;;;;;;;1.40;1.30;;;;;20.50;98591.00;;;;5061038;28;20260;-66
2023/08/02 11:45:52;;;;;;;1.47;1.37;;;;;21.10;98572.00;;;;5065904;28;20234;-66
2023/08/02 11:48:38;;;;;;;1.67;1.37;;;;;21.50;98551.00;;;;5060712;28;20711;-67
2023/08/02 11:51:25;;;;;;;5.07;1.57;;;;;21.90;98518.00;;;;5063870;28;20250;-66
2023/08/02 11:54:12;;;;;;;3.50;1.60;;;;;22.30;98503.00;;;;5065004;28;20277;-66
2023/08/02 11:57:00;;;;;;;1.50;1.40;;;;;22.00;98496.00;;;;5063110;28;20865;-67
2023/08/02 11:59:48;;;;;;;1.53;1.30;;;;;21.40;98496.00;;;;5054935;28;20346;-67
2023/08/02 12:02:34;;;;;;;1.30;1.20;;;;;21.30;98517.00;;;;5065875;28;20317;-67
2023/08/02 12:05:21;;;;;;;1.20;1.10;;;;;20.80;98544.00;;;;5056371;28;20234;-67
2023/08/02 12:08:10;;;;;;;1.43;1.33;;;;;20.60;98552.00;;;;5064156;28;20735;-69
2023/08/02 12:10:57;;;;;;;1.30;1.20;;;;;20.40;98537.00;;;;5063056;28;20259;-67
2023/08/02 12:13:46;;;;;;;1.20;1.10;;;;;20.50;98527.00;;;;5061748;28;20741;-67
2023/08/02 12:16:39;;;;;;;1.13;1.10;;;;;20.20;98535.00;;;;5058255;28;20613;-66
2023/08/02 12:19:38;;;;;;;1.10;1.10;;;;;20.30;98531.00;;;;5057465;28;20235;-67
2023/08/02 12:22:24;;;;;;;1.80;1.20;;;;;20.20;98518.00;;;;5061731;28;20681;-69
2023/08/02 12:25:11;;;;;;;1.00;1.00;;;;;20.10;98519.00;;;;5065563;28;20265;-68
2023/08/02 12:28:04;;;;;;;2.93;1.40;;;;;19.90;98529.00;;;;5069371;28;20238;-67
2023/08/02 12:31:03;;;;;;;1.30;1.20;;;;;19.70;98521.00;;;;5077842;28;21008;-68
2023/08/02 12:33:50;;;;;;;5.60;1.20;;;;;19.70;98518.00;;;;5069458;28;20242;-69
2023/08/02 12:36:36;;;;;;;1.63;1.30;;;;;19.60;98536.00;;;;5074420;28;20398;-68
2023/08/02 12:39:23;;;;;;;1.53;1.30;;;;;19.50;98537.00;;;;5063184;28;20228;-68
2023/08/02 12:42:09;;;;;;;1.90;1.30;;;;;19.50;98523.00;;;;5079257;28;20253;-69
2023/08/02 12:44:56;;;;;;;2.40;1.40;;;;;19.40;98510.00;;;;5068132;28;20268;-69
2023/08/02 12:47:58;;;;;;;1.20;1.20;;;;;19.50;98478.00;;;;5063416;28;20308;-70
2023/08/02 12:50:45;;;;;;;1.50;1.40;;;;;19.50;98461.00;;;;5068636;28;20241;-68
2023/08/02 12:53:31;;;;;;;2.00;1.47;;;;;19.50;98451.00;;;;5070185;28;20297;-67
2023/08/02 12:56:18;;;;;;;4.60;1.40;;;;;19.20;98477.00;;;;5067985;28;20232;-69
2023/08/02 12:59:04;;;;;;;2.67;1.50;;;;;19.30;98498.00;;;;5062309;28;20242;-70
2023/08/02 13:01:50;;;;;;;11.40;2.00;;;;;19.30;98480.00;;;;5068516;28;20234;-68
2023/08/02 13:04:39;;;;;;;6.40;1.77;;;;;19.10;98502.00;;;;5073603;28;20232;-68
2023/08/02 13:07:26;;;;;;;5.90;1.80;;;;;19.20;98476.00;;;;5062747;28;20636;-68
2023/08/02 13:10:28;;;;;;;3.33;1.87;;;;;19.30;98480.00;;;;5072403;28;20770;-68
2023/08/02 13:13:14;;;;;;;3.90;1.70;;;;;19.40;98474.00;;;;5076927;28;20239;-68
2023/08/02 13:16:01;;;;;;;3.23;1.87;;;;;19.40;98461.00;;;;5066530;28;20773;-68
2023/08/02 13:18:47;;;;;;;4.23;1.80;;;;;19.50;98469.00;;;;5064572;28;20247;-68
2023/08/02 13:21:35;;;;;;;1.83;1.70;;;;;19.80;98460.00;;;;5059388;28;20229;-69
2023/08/02 13:24:22;;;;;;;6.17;1.80;;;;;19.80;98464.00;;;;5064045;28;20226;-66
2023/08/02 13:27:08;;;;;;;3.47;1.67;;;;;20.20;98451.00;;;;5066971;28;20232;-69
2023/08/02 13:29:55;;;;;;;2.40;1.60;;;;;21.00;98442.00;;;;5070324;28;20249;-68
2023/08/02 13:32:41;;;;;;;2.73;1.50;;;;;21.60;98436.00;;;;5068349;28;20572;-67
2023/08/02 13:35:28;;;;;;;1.80;1.30;;;;;22.30;98394.00;;;;5059425;28;20222;-67
2023/08/02 13:38:15;;;;;;;3.03;1.40;;;;;23.00;98433.00;;;;5062783;28;20326;-67
2023/08/02 13:41:01;;;;;;;1.30;1.10;;;;;23.20;98428.00;;;;5066353;28;20307;-66
2023/08/02 13:43:48;;;;;;;1.83;1.20;;;;;22.80;98432.00;;;;5073166;28;20292;-67
2023/08/02 13:46:34;;;;;;;2.77;1.23;;;;;22.60;98429.00;;;;5068023;28;21898;-67
2023/08/02 13:49:21;;;;;;;1.30;1.17;;;;;22.70;98445.00;;;;5061975;28;20227;-66
2023/08/02 13:52:07;;;;;;;1.87;1.10;;;;;22.50;98437.00;;;;5076764;28;20227;-67
2023/08/02 13:54:56;;;;;;;1.60;1.40;;;;;22.30;98407.00;;;;5069151;28;20235;-67
2023/08/02 13:57:42;;;;;;;1.53;1.17;;;;;23.50;98403.00;;;;5060392;28;20220;-66
2023/08/02 14:00:29;;;;;;;1.23;1.17;;;;;23.20;98425.00;;;;5066121;28;20750;-66
2023/08/02 14:03:15;;;;;;;1.07;1.07;;;;;23.80;98397.00;;;;5065609;28;20347;-68